createdAt,value
2022-11-17T00:02:18.262Z,97231.31
2022-11-17T00:04:45.712Z,97236.31
2022-11-17T00:07:12.817Z,97229.78
2022-11-17T00:09:39.833Z,97229.41
2022-11-17T00:12:29.895Z,97231.31
2022-11-17T00:14:59.710Z,97231.78
2022-11-17T00:17:27.133Z,97239.53
2022-11-17T00:20:12.622Z,97236.25
2022-11-17T00:22:39.605Z,97220.06
2022-11-17T00:25:06.721Z,97222.91
2022-11-17T00:27:33.834Z,97224.91
2022-11-17T00:30:00.766Z,97202.03
2022-11-17T00:32:46.176Z,97208.75
2022-11-17T00:35:13.156Z,97210.38
2022-11-17T00:37:59.921Z,97205.97
2022-11-17T00:40:27.084Z,97213.22
2022-11-17T00:42:54.103Z,97217.00
2022-11-17T00:45:21.057Z,97222.16
2022-11-17T00:47:48.582Z,97223.16
2022-11-17T00:50:15.741Z,97224.28
2022-11-17T00:52:42.742Z,97223.47
2022-11-17T00:55:09.825Z,97234.13
2022-11-17T00:57:36.800Z,97231.53
2022-11-17T01:00:04.593Z,97233.38
2022-11-17T01:02:31.586Z,97228.72
2022-11-17T01:04:58.517Z,97224.69
2022-11-17T01:07:26.284Z,97227.50
2022-11-17T01:09:53.349Z,97220.34
2022-11-17T01:12:20.360Z,97212.34
2022-11-17T01:14:47.539Z,97207.22
2022-11-17T01:17:14.561Z,97180.41
2022-11-17T01:19:41.614Z,97199.78
2022-11-17T01:22:08.685Z,97210.22
2022-11-17T01:24:35.723Z,97214.72
2022-11-17T01:27:02.738Z,97202.91
2022-11-17T01:29:29.742Z,97214.38
2022-11-17T01:31:56.700Z,97213.72
2022-11-17T01:34:23.677Z,97211.53
2022-11-17T01:37:09.258Z,97190.47
2022-11-17T01:39:36.248Z,97219.25
2022-11-17T01:42:05.793Z,97216.59
2022-11-17T01:45:02.556Z,97212.22
2022-11-17T01:47:50.949Z,97210.19
2022-11-17T01:50:20.934Z,97213.59
2022-11-17T01:52:51.395Z,97195.28
2022-11-17T01:55:20.090Z,97197.66
2022-11-17T01:57:53.381Z,97195.81
2022-11-17T02:00:20.489Z,97185.91
2022-11-17T02:02:48.460Z,97186.66
2022-11-17T02:05:49.881Z,97191.97
2022-11-17T02:08:46.968Z,97182.03
2022-11-17T02:11:35.819Z,97187.38
2022-11-17T02:14:29.096Z,97197.78
2022-11-17T02:17:14.450Z,97194.56
2022-11-17T02:20:18.332Z,97198.81
2022-11-17T02:22:55.916Z,97194.38
2022-11-17T02:25:31.331Z,97200.19
2022-11-17T02:28:11.171Z,97200.75
2022-11-17T02:30:59.388Z,97204.13
2022-11-17T02:33:55.030Z,97208.09
2022-11-17T02:40:11.149Z,97194.38
2022-11-17T02:43:03.635Z,97203.41
2022-11-17T02:45:39.943Z,97201.38
2022-11-17T02:48:16.452Z,97207.00
2022-11-17T02:50:46.712Z,97200.75
2022-11-17T02:53:15.319Z,97208.00
2022-11-17T02:55:52.139Z,97205.78
2022-11-17T02:58:19.362Z,97206.00
2022-11-17T03:01:13.811Z,97208.75
2022-11-17T03:03:55.810Z,97199.09
2022-11-17T03:06:31.766Z,97196.31
2022-11-17T03:09:10.484Z,97211.50
2022-11-17T03:11:47.752Z,97211.66
2022-11-17T03:14:34.805Z,97218.66
2022-11-17T03:17:11.541Z,97207.66
2022-11-17T03:19:48.212Z,97190.44
2022-11-17T03:22:32.149Z,97198.09
2022-11-17T03:25:03.471Z,97181.06
2022-11-17T03:27:45.820Z,97194.56
2022-11-17T03:30:13.775Z,97198.88
2022-11-17T03:32:46.828Z,97197.13
2022-11-17T03:35:19.066Z,97203.13
2022-11-17T03:37:51.342Z,97204.59
2022-11-17T03:40:22.475Z,97202.00
2022-11-17T03:42:54.253Z,97186.84
2022-11-17T03:45:25.991Z,97197.78
2022-11-17T03:48:00.670Z,97194.00
2022-11-17T03:50:36.471Z,97196.56
2022-11-17T03:53:05.329Z,97194.38
2022-11-17T03:56:03.103Z,97201.06
2022-11-17T03:58:34.580Z,97194.09
2022-11-17T04:01:04.833Z,97198.16
2022-11-17T04:03:35.461Z,97188.28
2022-11-17T04:06:02.644Z,97188.28
2022-11-17T04:08:30.995Z,97180.19
2022-11-17T04:11:16.853Z,97197.31
2022-11-17T04:14:02.383Z,97184.63
2022-11-17T04:16:29.257Z,97197.94
2022-11-17T04:18:59.018Z,97187.75
2022-11-17T04:21:26.488Z,97193.63
2022-11-17T04:23:53.351Z,97197.78
2022-11-17T04:26:39.583Z,97180.75
2022-11-17T04:29:06.443Z,97198.94
2022-11-17T04:31:33.471Z,97199.06
2022-11-17T04:34:05.288Z,97210.19
2022-11-17T04:36:37.426Z,97198.13
2022-11-17T04:39:04.756Z,97200.34
2022-11-17T04:41:50.413Z,97201.56
2022-11-17T04:44:18.123Z,97194.66
2022-11-17T04:46:48.678Z,97199.44
2022-11-17T04:49:17.293Z,97180.13
2022-11-17T04:51:44.784Z,97208.44
2022-11-17T04:54:14.689Z,97203.19
2022-11-17T04:56:43.088Z,97178.91
2022-11-17T04:59:10.039Z,97200.25
2022-11-17T05:01:37.500Z,97204.56
2022-11-17T05:04:09.844Z,97199.59
2022-11-17T05:06:39.963Z,97205.94
2022-11-17T05:09:09.571Z,97208.59
2022-11-17T05:11:55.290Z,97217.88
2022-11-17T05:14:24.186Z,97214.69
2022-11-17T05:17:11.371Z,97192.06
2022-11-17T05:19:47.470Z,97218.97
2022-11-17T05:22:35.731Z,97203.72
2022-11-17T05:25:03.162Z,97211.19
2022-11-17T05:27:30.238Z,97208.94
2022-11-17T05:29:57.123Z,97212.44
2022-11-17T05:32:24.028Z,97209.47
2022-11-17T05:34:50.954Z,97210.97
2022-11-17T05:37:17.955Z,97211.22
2022-11-17T05:39:44.838Z,97221.34
2022-11-17T05:42:11.816Z,97222.50
2022-11-17T05:44:39.635Z,97232.16
2022-11-17T05:47:06.551Z,97235.53
2022-11-17T05:49:33.430Z,97231.00
2022-11-17T05:52:00.394Z,97238.69
2022-11-17T05:54:27.302Z,97241.50
2022-11-17T05:57:05.205Z,97231.22
2022-11-17T05:59:39.823Z,97232.09
2022-11-17T06:02:08.914Z,97243.41
2022-11-17T06:04:36.069Z,97248.56
2022-11-17T06:07:03.085Z,97245.19
2022-11-17T06:09:35.633Z,97249.81
2022-11-17T06:12:05.818Z,97255.50
2022-11-17T06:14:34.480Z,97252.53
2022-11-17T06:17:07.451Z,97254.91
2022-11-17T06:19:42.012Z,97264.38
2022-11-17T06:22:12.727Z,97259.56
2022-11-17T06:24:44.432Z,97252.56
2022-11-17T06:27:14.178Z,97256.56
2022-11-17T06:29:44.690Z,97263.06
2022-11-17T06:32:14.557Z,97266.72
2022-11-17T06:34:43.686Z,97263.53
2022-11-17T06:37:11.615Z,97263.19
2022-11-17T06:39:38.536Z,97267.31
2022-11-17T06:42:05.501Z,97275.78
2022-11-17T06:44:32.394Z,97262.91
2022-11-17T06:46:59.394Z,97275.78
2022-11-17T06:49:26.243Z,97265.47
2022-11-17T06:51:53.118Z,97268.50
2022-11-17T06:54:20.012Z,97277.19
2022-11-17T06:56:47.379Z,97258.03
2022-11-17T06:59:16.203Z,97270.97
2022-11-17T07:01:43.724Z,97268.03
2022-11-17T07:04:10.712Z,97270.34
2022-11-17T07:06:38.152Z,97268.38
2022-11-17T07:09:05.866Z,97269.03
2022-11-17T07:11:35.538Z,97268.72
2022-11-17T07:14:02.443Z,97267.44
2022-11-17T07:16:30.967Z,97266.97
2022-11-17T07:18:59.464Z,97267.44
2022-11-17T07:21:26.866Z,97268.06
2022-11-17T07:23:54.037Z,97267.44
2022-11-17T07:26:20.941Z,97270.56
2022-11-17T07:28:47.814Z,97276.78
2022-11-17T07:31:14.854Z,97275.06
2022-11-17T07:33:41.760Z,97276.94
2022-11-17T07:36:11.286Z,97297.88
2022-11-17T07:38:40.199Z,97297.53
2022-11-17T07:41:10.002Z,97289.69
2022-11-17T07:43:37.281Z,97290.03
2022-11-17T07:46:06.146Z,97264.81
2022-11-17T07:48:33.660Z,97271.25
2022-11-17T07:51:02.063Z,97277.88
2022-11-17T07:53:29.424Z,97274.00
2022-11-17T07:55:56.436Z,97274.06
2022-11-17T07:58:25.736Z,97266.59
2022-11-17T08:00:52.746Z,97272.69
2022-11-17T08:03:19.769Z,97288.50
2022-11-17T08:05:46.765Z,97292.28
2022-11-17T08:08:14.314Z,97287.63
2022-11-17T08:10:43.249Z,97288.56
2022-11-17T08:13:10.170Z,97285.19
2022-11-17T08:15:37.168Z,97276.53
2022-11-17T08:18:04.321Z,97284.53
2022-11-17T08:20:31.268Z,97281.34
2022-11-17T08:22:58.800Z,97282.91
2022-11-17T08:25:27.209Z,97280.78
2022-11-17T08:27:58.130Z,97274.53
2022-11-17T08:30:26.335Z,97277.56
2022-11-17T08:32:54.702Z,97278.56
2022-11-17T08:35:24.394Z,97245.25
2022-11-17T08:37:51.921Z,97277.88
2022-11-17T08:40:19.551Z,97285.88
2022-11-17T08:42:47.146Z,97287.41
2022-11-17T08:45:14.511Z,97263.66
2022-11-17T08:47:41.484Z,97275.84
2022-11-17T08:50:09.192Z,97274.19
2022-11-17T08:52:36.097Z,97280.72
2022-11-17T08:55:05.867Z,97297.53
2022-11-17T08:57:33.468Z,97297.63
2022-11-17T09:00:01.329Z,97305.00
2022-11-17T09:02:28.715Z,97305.53
2022-11-17T09:04:56.059Z,97311.16
2022-11-17T09:07:23.161Z,97330.38
2022-11-17T09:09:50.260Z,97323.22
2022-11-17T09:12:19.171Z,97315.28
2022-11-17T09:14:46.207Z,97320.50
2022-11-17T09:17:13.153Z,97325.94
2022-11-17T09:19:40.088Z,97306.81
2022-11-17T09:22:07.149Z,97313.13
2022-11-17T09:24:34.064Z,97310.09
2022-11-17T09:27:03.255Z,97305.09
2022-11-17T09:29:31.202Z,97305.28
2022-11-17T09:31:58.219Z,97302.03
2022-11-17T09:34:25.836Z,97311.47
2022-11-17T09:36:52.752Z,97311.94
2022-11-17T09:39:19.702Z,97313.97
2022-11-17T09:41:50.057Z,97310.66
2022-11-17T09:44:28.503Z,97307.72
2022-11-17T09:47:07.322Z,97307.66
2022-11-17T09:49:35.051Z,97310.63
2022-11-17T09:52:33.233Z,97305.63
2022-11-17T09:55:04.444Z,97323.88
2022-11-17T09:57:42.374Z,97323.50
2022-11-17T10:00:18.830Z,97312.03
2022-11-17T10:02:46.820Z,97323.78
2022-11-17T10:05:34.906Z,97329.50
2022-11-17T10:08:11.542Z,97331.84
2022-11-17T10:10:52.298Z,97309.44
2022-11-17T10:13:34.245Z,97322.84
2022-11-17T10:16:14.452Z,97297.28
2022-11-17T10:18:41.531Z,97313.84
2022-11-17T10:21:09.568Z,97309.78
2022-11-17T10:23:45.770Z,97318.41
2022-11-17T10:26:15.897Z,97322.63
2022-11-17T10:28:43.512Z,97318.59
2022-11-17T10:31:19.638Z,97318.41
2022-11-17T10:33:49.922Z,97324.19
2022-11-17T10:36:23.708Z,97326.41
2022-11-17T10:38:55.939Z,97315.59
2022-11-17T10:41:37.813Z,97325.84
2022-11-17T10:44:22.545Z,97318.38
2022-11-17T10:47:04.387Z,97319.91
2022-11-17T10:49:34.958Z,97319.06
2022-11-17T10:52:18.932Z,97322.63
2022-11-17T10:54:45.906Z,97321.81
2022-11-17T10:57:19.443Z,97325.81
2022-11-17T10:59:56.507Z,97327.28
2022-11-17T11:02:31.259Z,97319.47
2022-11-17T11:05:18.829Z,97321.28
2022-11-17T11:07:45.946Z,97326.09
2022-11-17T11:10:18.571Z,97326.81
2022-11-17T11:12:52.563Z,97323.44
2022-11-17T11:15:25.541Z,97315.13
2022-11-17T11:17:52.716Z,97319.78
2022-11-17T11:20:24.744Z,97314.19
2022-11-17T11:23:01.603Z,97310.91
2022-11-17T11:26:06.993Z,97319.88
2022-11-17T11:29:13.139Z,97311.38
2022-11-17T11:31:45.832Z,97307.56
2022-11-17T11:34:41.579Z,97301.88
2022-11-17T11:37:15.988Z,97298.91
2022-11-17T11:40:01.724Z,97297.84
2022-11-17T11:42:58.097Z,97294.13
2022-11-17T11:46:06.265Z,97294.78
2022-11-17T11:48:34.438Z,97300.81
2022-11-17T11:51:25.476Z,97307.94
2022-11-17T11:53:56.118Z,97301.03
2022-11-17T11:56:27.487Z,97298.59
2022-11-17T11:59:02.872Z,97314.81
2022-11-17T12:01:39.378Z,97321.13
2022-11-17T12:04:23.900Z,97316.63
2022-11-17T12:07:02.289Z,97312.84
2022-11-17T12:09:38.009Z,97312.91
2022-11-17T12:12:13.676Z,97324.53
2022-11-17T12:14:41.478Z,97320.06
2022-11-17T12:17:17.559Z,97332.91
2022-11-17T12:19:44.532Z,97340.47
2022-11-17T12:22:40.862Z,97337.28
2022-11-17T12:25:18.738Z,97349.75
2022-11-17T12:27:55.097Z,97344.09
2022-11-17T12:30:45.300Z,97343.91
2022-11-17T12:33:12.263Z,97341.41
2022-11-17T12:35:40.332Z,97348.72
2022-11-17T12:38:20.219Z,97346.22
2022-11-17T12:40:48.352Z,97351.53
2022-11-17T12:43:15.333Z,97348.25
2022-11-17T12:45:54.917Z,97352.63
2022-11-17T12:48:33.845Z,97370.09
2022-11-17T12:51:04.798Z,97364.31
2022-11-17T12:53:38.880Z,97364.94
2022-11-17T12:56:32.492Z,97368.44
2022-11-17T12:59:28.659Z,97379.81
2022-11-17T13:02:39.942Z,97370.00
2022-11-17T13:05:20.882Z,97364.66
2022-11-17T13:07:48.193Z,97356.38
2022-11-17T13:10:27.160Z,97358.69
2022-11-17T13:13:23.900Z,97358.53
2022-11-17T13:15:58.335Z,97351.25
2022-11-17T13:18:45.925Z,97344.25
2022-11-17T13:21:26.132Z,97342.94
2022-11-17T13:23:53.976Z,97346.47
2022-11-17T13:26:26.997Z,97331.94
2022-11-17T13:29:06.155Z,97349.72
2022-11-17T13:31:33.865Z,97350.88
2022-11-17T13:34:06.501Z,97347.72
2022-11-17T13:36:34.440Z,97346.72
2022-11-17T13:39:01.367Z,97345.09
2022-11-17T13:41:39.927Z,97357.41
2022-11-17T13:44:13.864Z,97336.84
2022-11-17T13:46:41.092Z,97359.69
2022-11-17T13:49:33.576Z,97363.88
2022-11-17T13:52:01.584Z,97357.91
2022-11-17T13:54:29.196Z,97351.44
2022-11-17T13:57:03.966Z,97332.00
2022-11-17T13:59:34.296Z,97350.09
2022-11-17T14:02:16.604Z,97337.72
2022-11-17T14:05:15.277Z,97291.00
2022-11-17T14:07:44.098Z,97349.09
2022-11-17T14:10:28.167Z,97338.75
2022-11-17T14:13:23.069Z,97331.28
2022-11-17T14:15:56.868Z,97342.44
2022-11-17T14:18:26.844Z,97345.44
2022-11-17T14:21:14.891Z,97346.59
2022-11-17T14:23:44.208Z,97346.63
2022-11-17T14:26:21.477Z,97352.94
2022-11-17T14:28:50.205Z,97349.28
2022-11-17T14:31:17.392Z,97350.13
2022-11-17T14:33:44.507Z,97351.59
2022-11-17T14:36:17.069Z,97345.28
2022-11-17T14:38:48.150Z,97343.31
2022-11-17T14:41:16.792Z,97349.63
2022-11-17T14:43:43.748Z,97351.78
2022-11-17T14:46:25.833Z,97344.00
2022-11-17T14:48:54.232Z,97335.19
2022-11-17T14:51:21.693Z,97338.84
2022-11-17T14:53:48.990Z,97331.16
2022-11-17T14:56:18.371Z,97328.81
2022-11-17T14:58:48.584Z,97324.19
2022-11-17T15:01:30.278Z,97317.19
2022-11-17T15:04:15.716Z,97324.38
2022-11-17T15:06:48.117Z,97330.88
2022-11-17T15:09:17.901Z,97317.91
2022-11-17T15:11:44.776Z,97314.72
2022-11-17T15:14:11.819Z,97306.94
2022-11-17T15:16:38.713Z,97308.78
2022-11-17T15:19:06.954Z,97307.59
2022-11-17T15:21:34.205Z,97310.91
2022-11-17T15:24:03.573Z,97313.91
2022-11-17T15:26:30.581Z,97307.38
2022-11-17T15:29:01.260Z,97301.09
2022-11-17T15:31:28.460Z,97303.94
2022-11-17T15:33:55.350Z,97292.13
2022-11-17T15:36:23.591Z,97291.63
2022-11-17T15:38:50.838Z,97287.84
2022-11-17T15:41:17.839Z,97282.16
2022-11-17T15:43:45.750Z,97296.94
2022-11-17T15:46:15.469Z,97243.50
2022-11-17T15:48:44.023Z,97283.84
2022-11-17T15:51:16.758Z,97269.50
2022-11-17T15:53:44.990Z,97271.38
2022-11-17T15:56:19.868Z,97263.72
2022-11-17T15:58:48.459Z,97263.06
2022-11-17T16:01:27.203Z,97264.53
2022-11-17T16:04:57.644Z,97265.84
2022-11-17T16:07:24.805Z,97283.31
2022-11-17T16:09:53.029Z,97278.72
2022-11-17T16:12:19.921Z,97278.03
2022-11-17T16:14:46.848Z,97282.00
2022-11-17T16:17:13.709Z,97284.34
2022-11-17T16:19:40.664Z,97282.66
2022-11-17T16:22:07.553Z,97283.31
2022-11-17T16:24:34.469Z,97298.56
2022-11-17T16:27:01.460Z,97287.56
2022-11-17T16:29:28.327Z,97298.84
2022-11-17T16:31:56.330Z,97262.19
2022-11-17T16:34:23.292Z,97285.78
2022-11-17T16:36:50.192Z,97296.44
2022-11-17T16:39:17.932Z,97297.75
2022-11-17T16:41:46.087Z,97300.75
2022-11-17T16:44:16.164Z,97308.72
2022-11-17T16:46:45.240Z,97305.25
2022-11-17T16:49:14.907Z,97305.59
2022-11-17T16:51:47.666Z,97311.19
2022-11-17T16:54:16.063Z,97294.28
2022-11-17T16:56:43.565Z,97309.41
2022-11-17T16:59:11.607Z,97309.25
2022-11-17T17:01:38.898Z,97315.41
2022-11-17T17:04:08.816Z,97323.22
2022-11-17T17:06:38.825Z,97319.72
2022-11-17T17:09:07.923Z,97319.25
2022-11-17T17:11:37.555Z,97316.06
2022-11-17T17:14:08.478Z,97311.25
2022-11-17T17:16:37.026Z,97315.59
2022-11-17T17:19:06.851Z,97320.25
2022-11-17T17:21:35.258Z,97323.53
2022-11-17T17:24:02.468Z,97325.41
2022-11-17T17:26:35.904Z,97311.94
2022-11-17T17:29:04.779Z,97310.28
2022-11-17T17:31:40.225Z,97309.13
2022-11-17T17:34:07.850Z,97294.28
2022-11-17T17:36:36.733Z,97293.28
2022-11-17T17:39:04.544Z,97261.75
2022-11-17T17:41:34.484Z,97290.81
2022-11-17T17:44:04.315Z,97299.16
2022-11-17T17:46:34.773Z,97294.78
2022-11-17T17:49:02.590Z,97294.66
2022-11-17T17:51:30.386Z,97288.34
2022-11-17T17:54:01.139Z,97291.53
2022-11-17T17:56:28.646Z,97286.38
2022-11-17T17:58:56.052Z,97282.53
2022-11-17T18:01:25.411Z,97283.34
2022-11-17T18:03:54.500Z,97280.38
2022-11-17T18:06:22.807Z,97285.34
2022-11-17T18:08:50.094Z,97267.44
2022-11-17T18:11:19.628Z,97285.69
2022-11-17T18:13:49.169Z,97287.69
2022-11-17T18:16:24.049Z,97277.88
2022-11-17T18:18:58.486Z,97284.84
2022-11-17T18:21:26.117Z,97281.03
2022-11-17T18:23:54.258Z,97279.03
2022-11-17T18:26:26.679Z,97287.16
2022-11-17T18:28:58.440Z,97287.97
2022-11-17T18:31:28.092Z,97276.38
2022-11-17T18:33:56.954Z,97273.22
2022-11-17T18:36:25.226Z,97245.69
2022-11-17T18:38:53.007Z,97267.06
2022-11-17T18:41:21.562Z,97256.75
2022-11-17T18:43:49.174Z,97254.13
2022-11-17T18:46:18.480Z,97242.84
2022-11-17T18:48:47.716Z,97250.19
2022-11-17T18:51:19.570Z,97243.38
2022-11-17T18:53:47.526Z,97246.19
2022-11-17T18:56:16.518Z,97219.31
2022-11-17T18:58:44.233Z,97256.50
2022-11-17T19:01:22.842Z,97249.19
2022-11-17T19:03:52.686Z,97252.81
2022-11-17T19:06:21.476Z,97252.16
2022-11-17T19:08:49.016Z,97256.97
2022-11-17T19:11:17.497Z,97258.66
2022-11-17T19:13:45.788Z,97260.47
2022-11-17T19:16:14.294Z,97269.44
2022-11-17T19:18:42.178Z,97267.25
2022-11-17T19:21:14.856Z,97268.75
2022-11-17T19:23:48.033Z,97277.06
2022-11-17T19:26:23.350Z,97275.69
2022-11-17T19:28:50.470Z,97279.72
2022-11-17T19:31:19.770Z,97290.00
2022-11-17T19:33:48.559Z,97287.31
2022-11-17T19:36:18.785Z,97287.00
2022-11-17T19:38:51.680Z,97289.50
2022-11-17T19:41:24.484Z,97290.72
2022-11-17T19:43:59.475Z,97288.34
2022-11-17T19:46:28.409Z,97291.19
2022-11-17T19:48:57.017Z,97283.38
2022-11-17T19:51:29.633Z,97288.69
2022-11-17T19:54:02.523Z,97285.41
2022-11-17T19:56:30.299Z,97288.38
2022-11-17T19:58:57.552Z,97293.53
2022-11-17T20:01:29.515Z,97285.91
2022-11-17T20:03:59.205Z,97278.94
2022-11-17T20:06:28.722Z,97280.44
2022-11-17T20:08:57.718Z,97274.63
2022-11-17T20:11:28.803Z,97279.09
2022-11-17T20:13:56.486Z,97269.81
2022-11-17T20:16:25.720Z,97292.06
2022-11-17T20:18:54.717Z,97286.41
2022-11-17T20:21:22.205Z,97284.28
2022-11-17T20:23:49.248Z,97280.78
2022-11-17T20:26:24.443Z,97270.31
2022-11-17T20:28:52.514Z,97272.63
2022-11-17T20:31:24.541Z,97275.13
2022-11-17T20:33:56.516Z,97272.97
2022-11-17T20:36:23.792Z,97272.13
2022-11-17T20:38:52.237Z,97266.47
2022-11-17T20:41:21.179Z,97262.69
2022-11-17T20:43:49.674Z,97261.16
2022-11-17T20:46:17.276Z,97262.00
2022-11-17T20:48:44.611Z,97252.88
2022-11-17T20:51:17.115Z,97223.19
2022-11-17T20:53:44.660Z,97239.88
2022-11-17T20:56:13.388Z,97249.00
2022-11-17T20:58:40.710Z,97244.38
2022-11-17T21:01:19.543Z,97235.72
2022-11-17T21:03:46.565Z,97224.94
2022-11-17T21:06:14.404Z,97222.97
2022-11-17T21:08:42.384Z,97219.00
2022-11-17T21:11:32.579Z,97211.66
2022-11-17T21:13:59.802Z,97211.00
2022-11-17T21:16:26.722Z,97215.97
2022-11-17T21:18:53.674Z,97227.81
2022-11-17T21:21:20.680Z,97214.63
2022-11-17T21:23:47.587Z,97212.19
2022-11-17T21:26:19.030Z,97217.97
2022-11-17T21:28:47.644Z,97219.31
2022-11-17T21:31:17.080Z,97212.69
2022-11-17T21:33:45.376Z,97215.84
2022-11-17T21:36:17.139Z,97211.56
2022-11-17T21:38:45.434Z,97205.03
2022-11-17T21:41:27.044Z,97212.00
2022-11-17T21:43:55.484Z,97203.03
2022-11-17T21:46:24.619Z,97190.41
2022-11-17T21:48:52.770Z,97187.78
2022-11-17T21:51:27.171Z,97199.56
2022-11-17T21:53:56.233Z,97191.38
2022-11-17T21:56:26.655Z,97193.06
2022-11-17T21:59:01.361Z,97189.06
2022-11-17T22:01:29.493Z,97188.72
2022-11-17T22:03:56.549Z,97183.78
2022-11-17T22:06:25.290Z,97173.81
2022-11-17T22:08:54.335Z,97182.78
2022-11-17T22:11:44.315Z,97177.16
2022-11-17T22:14:16.630Z,97169.38
2022-11-17T22:16:49.224Z,97156.91
2022-11-17T22:19:17.719Z,97174.81
2022-11-17T22:21:47.368Z,97169.66
2022-11-17T22:24:14.364Z,97169.44
2022-11-17T22:26:43.623Z,97167.81
2022-11-17T22:29:19.098Z,97166.47
2022-11-17T22:31:47.461Z,97170.97
2022-11-17T22:34:15.641Z,97169.44
2022-11-17T22:36:43.176Z,97173.56
2022-11-17T22:39:10.179Z,97169.44
2022-11-17T22:41:37.186Z,97161.63
2022-11-17T22:44:04.238Z,97164.47
2022-11-17T22:46:31.138Z,97168.63
2022-11-17T22:48:58.119Z,97168.78
2022-11-17T22:51:44.075Z,97167.31
2022-11-17T22:54:11.329Z,97168.94
2022-11-17T22:56:38.311Z,97165.28
2022-11-17T22:59:05.268Z,97159.50
2022-11-17T23:01:32.507Z,97153.00
2022-11-17T23:03:59.930Z,97131.28
2022-11-17T23:06:29.864Z,97145.22
2022-11-17T23:08:58.404Z,97145.00
2022-11-17T23:11:41.598Z,97117.00
2022-11-17T23:14:12.494Z,97137.88
2022-11-17T23:16:39.776Z,97139.69
2022-11-17T23:19:07.123Z,97133.88
2022-11-17T23:21:34.054Z,97135.06
2022-11-17T23:24:01.163Z,97133.28
2022-11-17T23:26:28.076Z,97123.31
2022-11-17T23:28:54.989Z,97131.81
2022-11-17T23:31:21.958Z,97123.31
2022-11-17T23:33:49.290Z,97101.78
2022-11-17T23:36:18.931Z,97127.44
2022-11-17T23:38:47.315Z,97129.78
2022-11-17T23:41:15.955Z,97134.91
2022-11-17T23:43:43.634Z,97134.91
2022-11-17T23:46:15.307Z,97132.25
2022-11-17T23:48:43.603Z,97131.72
2022-11-17T23:51:13.368Z,97126.94
2022-11-17T23:53:40.783Z,97131.25
2022-11-17T23:56:09.068Z,97139.56
2022-11-17T23:58:36.409Z,97127.44
